Time;durP1;ratioP1;P1;durP2;ratioP2;P2;SDS_P1;SDS_P2;PMS_P1;PMS_P2;Temp;Humidity;BMP_temperature;BMP_pressure;BME280_temperature;BME280_humidity;BME280_pressure;Samples;Min_cycle;Max_cycle;Signal;HPM_P1;HPM_P2
2023/12/26 00:00:44;;;;;;;11.20;4.90;;;23.10;60.30;;;;;;218813;1267;24278;-50
2023/12/26 00:06:08;;;;;;;10.00;4.40;;;23.00;60.40;;;;;;218924;1283;25350;-50
2023/12/26 00:11:16;;;;;;;10.70;3.90;;;23.00;60.30;;;;;;219165;1283;22496;-51
2023/12/26 00:16:21;;;;;;;8.30;4.30;;;23.00;60.20;;;;;;219368;1283;25380;-49
2023/12/26 00:21:26;;;;;;;12.40;4.40;;;23.10;60.80;;;;;;218775;1270;22607;-47
2023/12/26 00:26:30;;;;;;;8.30;3.70;;;23.30;59.70;;;;;;219415;1273;24284;-53
2023/12/26 00:31:40;;;;;;;11.40;4.50;;;23.60;58.20;;;;;;219407;1284;22542;-49
2023/12/26 00:36:44;;;;;;;7.30;3.30;;;23.90;57.70;;;;;;219041;1282;24441;-52
2023/12/26 00:41:49;;;;;;;7.40;3.60;;;24.10;57.10;;;;;;219281;1287;24228;-62
2023/12/26 00:46:54;;;;;;;8.00;3.90;;;24.00;57.10;;;;;;219093;1276;24224;-60
2023/12/26 00:51:58;;;;;;;6.30;3.00;;;23.90;57.40;;;;;;219327;1283;22549;-61
2023/12/26 00:57:03;;;;;;;6.00;3.00;;;23.80;58.00;;;;;;219204;1282;24596;-60
2023/12/26 01:02:07;;;;;;;5.50;3.20;;;23.70;57.90;;;;;;219146;1287;24202;-61
2023/12/26 01:07:12;;;;;;;7.90;3.20;;;23.60;58.20;;;;;;219119;1280;24348;-62
2023/12/26 01:12:18;;;;;;;4.60;2.70;;;23.70;57.90;;;;;;219240;1286;24221;-61
2023/12/26 01:17:23;;;;;;;5.90;2.80;;;23.60;57.90;;;;;;219114;1283;22888;-60
2023/12/26 01:22:27;;;;;;;7.20;3.80;;;23.60;57.80;;;;;;219343;1283;22560;-61
2023/12/26 01:27:33;;;;;;;4.80;2.30;;;23.50;58.00;;;;;;219584;1273;22559;-60
2023/12/26 01:32:38;;;;;;;6.30;2.60;;;23.50;57.80;;;;;;219063;1278;24249;-61
2023/12/26 01:37:42;;;;;;;6.20;2.40;;;23.50;57.60;;;;;;219138;1273;24276;-60
2023/12/26 01:42:47;;;;;;;5.20;2.60;;;23.30;57.90;;;;;;219521;1273;22679;-61
2023/12/26 01:47:56;;;;;;;4.10;2.30;;;23.30;57.90;;;;;;219497;1280;22588;-61
2023/12/26 01:53:04;;;;;;;5.20;2.30;;;23.30;57.90;;;;;;219221;1283;25372;-61
2023/12/26 01:58:09;;;;;;;3.90;2.30;;;23.20;58.10;;;;;;219171;1281;24225;-61
2023/12/26 02:03:13;;;;;;;3.20;2.30;;;23.10;58.30;;;;;;219219;1283;22523;-62
2023/12/26 02:08:19;;;;;;;2.90;2.10;;;23.10;58.90;;;;;;219097;1280;22706;-62
2023/12/26 02:13:24;;;;;;;4.20;1.80;;;23.10;58.40;;;;;;219026;1283;22678;-62
2023/12/26 02:18:29;;;;;;;2.80;2.10;;;23.00;58.70;;;;;;219118;1285;24260;-62
2023/12/26 02:23:35;;;;;;;4.20;2.50;;;23.00;58.40;;;;;;219291;1276;23009;-60
2023/12/26 02:28:41;;;;;;;3.50;2.00;;;23.00;58.40;;;;;;219016;1282;22703;-61
2023/12/26 02:33:47;;;;;;;6.30;2.10;;;23.10;58.30;;;;;;219394;1281;24567;-61
2023/12/26 02:38:52;;;;;;;4.40;2.40;;;23.10;58.20;;;;;;219185;1287;22539;-62
2023/12/26 02:43:56;;;;;;;4.00;1.80;;;23.50;57.70;;;;;;219173;1279;22539;-62
2023/12/26 02:49:00;;;;;;;3.50;2.10;;;23.90;56.80;;;;;;219197;1285;22547;-62
2023/12/26 02:54:05;;;;;;;3.30;1.90;;;24.00;56.40;;;;;;218891;1280;24253;-62
2023/12/26 02:59:10;;;;;;;2.30;2.00;;;24.10;56.10;;;;;;218768;1283;24355;-60
2023/12/26 03:04:15;;;;;;;3.80;1.70;;;24.10;56.20;;;;;;219443;1286;22606;-61
2023/12/26 03:09:20;;;;;;;3.40;1.90;;;23.80;56.70;;;;;;219441;1275;25233;-62
2023/12/26 03:14:24;;;;;;;3.10;2.10;;;23.70;57.10;;;;;;219028;1273;25369;-60
2023/12/26 03:19:29;;;;;;;3.00;1.80;;;23.70;57.10;;;;;;218988;1280;22537;-61
2023/12/26 03:24:33;;;;;;;3.70;1.70;;;23.80;56.60;;;;;;219212;1283;22577;-61
2023/12/26 03:29:38;;;;;;;2.50;1.80;;;23.80;56.90;;;;;;219315;1280;22550;-61
2023/12/26 03:34:42;;;;;;;2.20;1.70;;;23.70;56.50;;;;;;219082;1276;22543;-62
2023/12/26 03:39:46;;;;;;;3.00;1.60;;;23.70;57.10;;;;;;221691;1282;25593;-62
2023/12/26 03:44:51;;;;;;;2.90;1.60;;;23.80;56.50;;;;;;219000;1282;22616;-60
2023/12/26 03:49:55;;;;;;;2.80;1.90;;;23.70;56.60;;;;;;219062;1287;24444;-62
2023/12/26 03:55:00;;;;;;;2.30;1.70;;;23.70;56.40;;;;;;219200;1283;24455;-61
2023/12/26 04:00:06;;;;;;;3.50;1.50;;;23.60;56.80;;;;;;219340;1276;22624;-62
2023/12/26 04:05:15;;;;;;;2.70;1.30;;;23.60;56.60;;;;;;218980;1283;22627;-62
2023/12/26 04:10:20;;;;;;;2.80;1.40;;;23.50;57.50;;;;;;219090;1286;24214;-63
2023/12/26 04:15:25;;;;;;;2.10;1.20;;;23.50;56.80;;;;;;219023;1276;22571;-61
2023/12/26 04:20:29;;;;;;;4.50;1.40;;;23.40;57.20;;;;;;219039;1288;24368;-61
2023/12/26 04:25:35;;;;;;;3.20;1.30;;;23.40;56.90;;;;;;219112;1285;22609;-61
2023/12/26 04:30:40;;;;;;;1.30;1.20;;;23.60;56.80;;;;;;219030;1286;25215;-61
2023/12/26 04:35:45;;;;;;;1.80;1.30;;;23.90;56.60;;;;;;219028;1273;25039;-61
2023/12/26 04:40:49;;;;;;;2.70;1.40;;;24.10;55.90;;;;;;219082;1286;24452;-63
2023/12/26 04:45:53;;;;;;;1.80;1.30;;;24.10;55.50;;;;;;219020;1273;25523;-61
2023/12/26 04:50:58;;;;;;;1.90;1.40;;;24.10;55.50;;;;;;219029;1285;22559;-62
2023/12/26 04:56:03;;;;;;;1.60;1.20;;;24.00;56.00;;;;;;218858;1283;25271;-60
2023/12/26 05:01:09;;;;;;;1.50;0.90;;;23.80;56.00;;;;;;219156;1282;24096;-64
2023/12/26 05:06:18;;;;;;;1.90;1.40;;;23.70;56.30;;;;;;219104;1283;23778;-62
2023/12/26 05:11:24;;;;;;;0.80;0.80;;;23.80;56.10;;;;;;219144;1280;22802;-62
2023/12/26 05:16:30;;;;;;;1.60;1.20;;;23.80;56.10;;;;;;219223;1282;23209;-61
2023/12/26 05:21:35;;;;;;;1.60;1.10;;;23.90;55.90;;;;;;219142;1287;24230;-62
2023/12/26 05:26:42;;;;;;;1.90;1.30;;;23.80;56.00;;;;;;219215;1283;25196;-62
2023/12/26 05:31:48;;;;;;;1.80;1.10;;;23.80;56.00;;;;;;219022;1273;26228;-63
2023/12/26 05:36:52;;;;;;;1.70;1.10;;;23.80;56.60;;;;;;218650;1289;22750;-62
2023/12/26 05:41:57;;;;;;;1.30;1.10;;;23.70;55.90;;;;;;218840;1288;22698;-62
2023/12/26 05:47:04;;;;;;;1.00;1.00;;;23.70;56.00;;;;;;218749;1289;24395;-62
2023/12/26 05:52:10;;;;;;;1.40;1.10;;;23.60;55.80;;;;;;218577;1288;24512;-62
2023/12/26 05:57:14;;;;;;;2.50;1.10;;;23.60;56.20;;;;;;219005;1273;22620;-62
2023/12/26 06:02:19;;;;;;;1.50;1.00;;;23.50;56.50;;;;;;219099;1273;25394;-63
2023/12/26 06:07:24;;;;;;;1.30;1.10;;;23.40;56.20;;;;;;219311;1273;25427;-62
2023/12/26 06:12:29;;;;;;;1.00;0.90;;;23.50;56.30;;;;;;219284;1274;24240;-62
2023/12/26 06:17:36;;;;;;;1.00;0.90;;;23.40;56.10;;;;;;219189;1276;22573;-62
2023/12/26 06:22:41;;;;;;;1.50;1.00;;;23.40;56.70;;;;;;218813;1288;194606;-60
2023/12/26 06:27:45;;;;;;;1.40;1.10;;;23.40;56.60;;;;;;218899;1270;22636;-61
2023/12/26 06:32:51;;;;;;;1.00;0.90;;;23.30;56.20;;;;;;219109;1276;22567;-60
2023/12/26 06:37:56;;;;;;;1.00;0.90;;;23.30;56.60;;;;;;219083;1270;24455;-61
2023/12/26 06:43:01;;;;;;;1.50;0.90;;;23.20;56.60;;;;;;218923;1281;25418;-61
2023/12/26 06:48:06;;;;;;;1.90;0.70;;;23.20;56.80;;;;;;218960;1286;22536;-60
2023/12/26 06:53:12;;;;;;;1.40;1.00;;;23.10;57.00;;;;;;219201;1287;24277;-61
2023/12/26 06:58:17;;;;;;;0.80;0.80;;;23.10;57.00;;;;;;219200;1283;24415;-60
2023/12/26 07:03:22;;;;;;;1.70;1.00;;;23.10;57.00;;;;;;218421;1283;25272;-62
2023/12/26 07:08:28;;;;;;;1.00;0.90;;;23.10;57.20;;;;;;218660;1289;24256;-62
2023/12/26 07:13:33;;;;;;;1.00;0.80;;;23.00;57.10;;;;;;218402;1283;24234;-62
2023/12/26 07:18:37;;;;;;;0.80;0.70;;;22.90;57.20;;;;;;218715;1276;24286;-62
2023/12/26 07:23:46;;;;;;;2.20;1.00;;;22.90;57.30;;;;;;218807;1283;22551;-61
2023/12/26 07:28:51;;;;;;;1.00;0.90;;;22.90;57.70;;;;;;219087;1273;23923;-61
2023/12/26 07:33:57;;;;;;;2.70;0.70;;;22.90;57.40;;;;;;218922;1286;24320;-62
2023/12/26 07:39:02;;;;;;;1.20;0.70;;;23.10;57.20;;;;;;220053;1280;22553;-60
2023/12/26 07:44:07;;;;;;;0.90;0.80;;;23.40;56.70;;;;;;219286;1283;22539;-59
2023/12/26 07:49:12;;;;;;;0.80;0.50;;;23.70;55.90;;;;;;218979;1286;24230;-61
2023/12/26 07:54:17;;;;;;;0.90;0.80;;;23.90;55.50;;;;;;220518;1273;25363;-61
2023/12/26 07:59:21;;;;;;;1.00;0.80;;;23.90;55.50;;;;;;222174;1283;22553;-56
2023/12/26 08:04:26;;;;;;;1.50;0.90;;;23.70;55.70;;;;;;219389;1280;25507;-57
2023/12/26 08:09:31;;;;;;;0.90;0.80;;;23.60;56.10;;;;;;218938;1267;24231;-57
2023/12/26 08:14:35;;;;;;;4.70;0.70;;;23.40;56.70;;;;;;219166;1276;22671;-53
2023/12/26 08:19:39;;;;;;;1.10;1.00;;;23.30;57.00;;;;;;218980;1267;24365;-49
2023/12/26 08:24:44;;;;;;;1.00;0.90;;;23.30;57.20;;;;;;219207;1283;22674;-52
2023/12/26 08:29:49;;;;;;;1.40;0.90;;;23.40;57.30;;;;;;218963;1283;25339;-51
2023/12/26 08:34:53;;;;;;;1.20;0.70;;;23.50;57.50;;;;;;219159;1282;22543;-52
2023/12/26 08:39:57;;;;;;;0.70;0.70;;;23.30;58.20;;;;;;218852;1286;22549;-55
2023/12/26 08:45:02;;;;;;;5.90;0.80;;;23.10;57.40;;;;;;218784;1289;24439;-55
2023/12/26 08:50:07;;;;;;;0.90;0.80;;;23.20;57.50;;;;;;218998;1286;24393;-53
2023/12/26 08:55:12;;;;;;;3.00;0.70;;;23.30;57.60;;;;;;218658;1278;25610;-53
2023/12/26 09:00:17;;;;;;;0.70;0.60;;;23.20;57.80;;;;;;218642;1286;27968;-52
2023/12/26 09:05:21;;;;;;;0.80;0.40;;;23.10;57.80;;;;;;218899;1267;24278;-53
2023/12/26 09:10:26;;;;;;;2.80;0.80;;;23.10;57.20;;;;;;218722;1283;22618;-49
2023/12/26 09:15:30;;;;;;;1.00;0.80;;;23.10;57.50;;;;;;220319;1283;23415;-53
2023/12/26 09:20:36;;;;;;;0.80;0.60;;;23.10;57.50;;;;;;219053;1283;22814;-54
2023/12/26 09:25:41;;;;;;;0.70;0.70;;;23.00;58.00;;;;;;218958;1279;25287;-52
2023/12/26 09:30:46;;;;;;;4.00;0.80;;;23.10;57.40;;;;;;218853;1283;26528;-54
2023/12/26 09:35:51;;;;;;;2.30;0.60;;;23.20;57.70;;;;;;219119;1273;25258;-52
2023/12/26 09:40:56;;;;;;;1.00;0.60;;;23.00;57.90;;;;;;219192;1283;25434;-54
2023/12/26 09:46:03;;;;;;;3.90;0.80;;;23.00;59.10;;;;;;219139;1288;24403;-54
2023/12/26 09:51:12;;;;;;;1.90;0.80;;;23.10;58.80;;;;;;219157;1279;22559;-48
2023/12/26 09:56:17;;;;;;;2.10;1.00;;;23.00;60.40;;;;;;219071;1274;26720;-51
2023/12/26 10:01:21;;;;;;;12.60;1.40;;;23.10;58.70;;;;;;219056;1277;24230;-51
2023/12/26 10:06:26;;;;;;;8.90;1.40;;;22.80;59.70;;;;;;219114;1287;25335;-53
2023/12/26 10:11:32;;;;;;;4.80;1.00;;;22.70;59.80;;;;;;219177;1282;22564;-58
2023/12/26 10:16:37;;;;;;;6.60;1.00;;;22.70;60.10;;;;;;218957;1273;27929;-58
2023/12/26 10:21:41;;;;;;;7.30;1.00;;;22.70;60.30;;;;;;218939;1288;25421;-58
2023/12/26 10:26:47;;;;;;;1.80;0.70;;;23.10;59.10;;;;;;219271;1280;22539;-58
2023/12/26 10:31:51;;;;;;;4.50;0.90;;;23.40;58.10;;;;;;219213;1280;24277;-59
2023/12/26 10:36:56;;;;;;;7.50;0.90;;;23.60;57.60;;;;;;219079;1274;22672;-51
2023/12/26 10:42:03;;;;;;;1.40;0.80;;;23.80;57.10;;;;;;219023;1283;22934;-52
2023/12/26 10:47:11;;;;;;;2.00;0.70;;;23.70;56.80;;;;;;219134;1274;25660;-52
2023/12/26 10:52:17;;;;;;;1.90;0.80;;;23.60;57.30;;;;;;218955;1279;22543;-53
2023/12/26 10:57:24;;;;;;;6.50;0.80;;;23.60;57.70;;;;;;219010;1287;23706;-55
2023/12/26 11:02:28;;;;;;;4.90;0.80;;;23.60;57.70;;;;;;218965;1281;22637;-51
2023/12/26 11:07:33;;;;;;;4.60;0.70;;;23.40;58.00;;;;;;219272;1283;22571;-53
2023/12/26 11:12:37;;;;;;;4.10;0.60;;;23.40;58.90;;;;;;218426;1279;22549;-52
2023/12/26 11:17:42;;;;;;;4.00;0.70;;;23.40;57.90;;;;;;218335;1288;24208;-54
2023/12/26 11:22:47;;;;;;;1.50;0.80;;;23.10;58.10;;;;;;218361;1286;22599;-52
2023/12/26 11:27:52;;;;;;;1.40;0.60;;;23.00;58.30;;;;;;218106;1285;25362;-51
2023/12/26 11:32:58;;;;;;;3.50;0.70;;;23.00;58.70;;;;;;219353;1283;24196;-52
2023/12/26 11:38:03;;;;;;;9.30;2.10;;;23.00;58.70;;;;;;219340;1273;25605;-50
2023/12/26 11:43:08;;;;;;;4.00;0.80;;;23.00;58.80;;;;;;219295;1284;23978;-52
2023/12/26 11:48:12;;;;;;;1.70;0.50;;;23.00;59.20;;;;;;219123;1286;22539;-53
2023/12/26 11:53:18;;;;;;;4.50;0.70;;;23.00;59.10;;;;;;218960;1286;22660;-55
2023/12/26 11:58:23;;;;;;;5.70;0.60;;;23.00;59.50;;;;;;218897;1285;22559;-54
2023/12/26 12:03:27;;;;;;;4.80;0.70;;;23.00;59.60;;;;;;219032;1276;22601;-55
2023/12/26 12:08:32;;;;;;;3.10;0.70;;;22.90;59.90;;;;;;219230;1287;22674;-56
2023/12/26 12:13:45;;;;;;;3.00;0.70;;;22.80;59.80;;;;;;219062;1286;24225;-55
2023/12/26 12:19:00;;;;;;;3.90;0.80;;;22.80;59.80;;;;;;219228;1288;23406;-55
2023/12/26 12:24:06;;;;;;;5.60;1.50;;;22.80;59.40;;;;;;219166;1287;23121;-55
2023/12/26 12:29:11;;;;;;;3.50;0.70;;;22.90;59.50;;;;;;219006;1281;24154;-55
2023/12/26 12:34:15;;;;;;;2.30;0.70;;;22.90;59.30;;;;;;219299;1284;22544;-55
2023/12/26 12:39:20;;;;;;;2.00;0.80;;;22.80;59.60;;;;;;219192;1270;22605;-52
2023/12/26 12:44:30;;;;;;;3.90;1.00;;;22.70;59.40;;;;;;219123;1286;24371;-53
2023/12/26 12:49:34;;;;;;;4.90;0.70;;;22.70;59.30;;;;;;219302;1285;22801;-54
2023/12/26 12:54:38;;;;;;;2.20;0.60;;;22.80;59.10;;;;;;219236;1285;25464;-55
2023/12/26 12:59:44;;;;;;;2.00;0.70;;;22.80;59.10;;;;;;219173;1286;24254;-54
2023/12/26 13:04:48;;;;;;;2.60;0.80;;;22.70;59.10;;;;;;219029;1286;23447;-53
2023/12/26 13:09:53;;;;;;;6.60;0.90;;;22.70;59.10;;;;;;219151;1283;25267;-52
2023/12/26 13:14:59;;;;;;;4.20;0.90;;;22.70;59.50;;;;;;219420;1288;25639;-54
2023/12/26 13:20:06;;;;;;;2.40;0.40;;;22.70;59.30;;;;;;218735;1281;24233;-54
2023/12/26 13:25:10;;;;;;;4.20;0.80;;;22.60;59.30;;;;;;219220;1285;22683;-52
2023/12/26 13:30:21;;;;;;;4.30;0.80;;;22.60;59.50;;;;;;218900;1288;24312;-56
2023/12/26 13:35:26;;;;;;;4.70;1.10;;;22.70;59.30;;;;;;219163;1270;23827;-55
2023/12/26 13:40:30;;;;;;;2.40;0.50;;;23.20;58.30;;;;;;219265;1286;23169;-53
2023/12/26 13:45:35;;;;;;;8.40;0.70;;;23.50;57.40;;;;;;219130;1285;22546;-55
2023/12/26 13:50:39;;;;;;;6.40;0.70;;;23.80;56.60;;;;;;219145;1281;22542;-55
2023/12/26 13:55:44;;;;;;;3.00;0.70;;;23.80;56.60;;;;;;219103;1286;24248;-56
2023/12/26 14:00:49;;;;;;;2.70;0.50;;;23.70;56.50;;;;;;219005;1269;22595;-52
2023/12/26 14:05:54;;;;;;;0.90;0.60;;;23.70;56.50;;;;;;219088;1286;22541;-53
2023/12/26 14:10:59;;;;;;;3.20;0.90;;;23.60;56.90;;;;;;219021;1283;24083;-55
2023/12/26 14:16:04;;;;;;;3.80;0.90;;;23.50;57.30;;;;;;219264;1286;24314;-54
2023/12/26 14:21:09;;;;;;;3.10;0.80;;;23.30;57.40;;;;;;218997;1285;24374;-55
2023/12/26 14:26:13;;;;;;;4.40;0.70;;;23.40;57.10;;;;;;219068;1286;24363;-57
2023/12/26 14:31:19;;;;;;;5.10;0.70;;;23.30;57.40;;;;;;218967;1279;24259;-53
2023/12/26 14:36:38;;;;;;;8.50;1.00;;;23.30;57.60;;;;;;218872;1288;24223;-53
2023/12/26 14:41:43;;;;;;;2.20;0.90;;;23.20;58.10;;;;;;219420;1288;23944;-53
2023/12/26 14:46:48;;;;;;;2.60;0.80;;;23.10;56.60;;;;;;226435;1286;25278;-53
2023/12/26 14:51:53;;;;;;;4.60;1.10;;;23.40;55.70;;;;;;221154;1286;24281;-55
2023/12/26 14:56:57;;;;;;;3.80;1.00;;;23.30;55.60;;;;;;223422;1284;22728;-55
2023/12/26 15:02:02;;;;;;;1.30;1.00;;;23.30;55.60;;;;;;219005;1288;22560;-54
2023/12/26 15:07:08;;;;;;;5.50;1.40;;;23.10;55.70;;;;;;219294;1286;22550;-52
2023/12/26 15:12:13;;;;;;;0.80;0.60;;;23.10;56.40;;;;;;219089;1284;22535;-53
2023/12/26 15:17:17;;;;;;;1.00;0.90;;;23.00;56.30;;;;;;219087;1287;25255;-52
2023/12/26 15:22:28;;;;;;;2.90;0.70;;;23.00;55.90;;;;;;219215;1288;24266;-53
2023/12/26 15:27:32;;;;;;;1.90;1.00;;;23.00;55.70;;;;;;219148;1285;22545;-54
2023/12/26 15:32:38;;;;;;;4.00;0.70;;;23.10;55.90;;;;;;219259;1273;22596;-54
2023/12/26 15:37:42;;;;;;;2.40;0.90;;;23.00;55.80;;;;;;219094;1283;22546;-54
2023/12/26 15:42:46;;;;;;;0.90;0.60;;;23.00;55.80;;;;;;219221;1280;22555;-55
2023/12/26 15:47:54;;;;;;;0.90;0.90;;;22.80;55.50;;;;;;219328;1281;22539;-55
2023/12/26 15:52:59;;;;;;;1.70;0.80;;;23.10;55.20;;;;;;219363;1283;24342;-54
2023/12/26 15:58:04;;;;;;;1.60;1.00;;;23.60;54.30;;;;;;219169;1283;24225;-53
2023/12/26 16:03:08;;;;;;;2.30;0.70;;;23.80;53.60;;;;;;219174;1283;22685;-55
2023/12/26 16:08:13;;;;;;;1.60;0.90;;;23.90;53.40;;;;;;219465;1283;22797;-54
2023/12/26 16:13:19;;;;;;;1.00;0.70;;;23.90;53.30;;;;;;219252;1276;24224;-54
2023/12/26 16:18:24;;;;;;;1.20;0.90;;;23.70;53.40;;;;;;219088;1288;22655;-54
2023/12/26 16:23:28;;;;;;;1.10;0.80;;;23.60;53.60;;;;;;219177;1287;22537;-52
2023/12/26 16:28:34;;;;;;;0.60;0.60;;;23.50;53.90;;;;;;219052;1283;25363;-53
2023/12/26 16:33:38;;;;;;;0.90;0.70;;;23.30;54.60;;;;;;219359;1283;22543;-55
2023/12/26 16:38:44;;;;;;;1.70;0.80;;;23.30;54.10;;;;;;219431;1286;22544;-55
2023/12/26 16:43:48;;;;;;;1.50;0.60;;;23.20;54.60;;;;;;219252;1288;25433;-56
2023/12/26 16:48:53;;;;;;;1.10;0.70;;;23.20;54.20;;;;;;219081;1283;24228;-54
2023/12/26 16:53:59;;;;;;;1.90;0.80;;;23.10;54.20;;;;;;219265;1283;24865;-54
2023/12/26 16:59:04;;;;;;;0.90;0.70;;;23.00;54.20;;;;;;219253;1282;22648;-56
2023/12/26 17:04:14;;;;;;;0.70;0.70;;;23.00;54.30;;;;;;219048;1288;22620;-56
2023/12/26 17:09:28;;;;;;;1.00;0.70;;;23.00;54.10;;;;;;219037;1286;22547;-53
2023/12/26 17:14:33;;;;;;;1.00;0.80;;;22.90;54.10;;;;;;219057;1280;22553;-55
2023/12/26 17:19:40;;;;;;;1.30;0.80;;;22.80;54.20;;;;;;219153;1280;22677;-56
2023/12/26 17:24:45;;;;;;;0.70;0.70;;;22.90;54.10;;;;;;218803;1288;22571;-56
2023/12/26 17:29:50;;;;;;;1.20;1.00;;;22.90;53.90;;;;;;219002;1283;24346;-53
2023/12/26 17:34:54;;;;;;;0.90;0.80;;;22.90;53.80;;;;;;219244;1286;24235;-54
2023/12/26 17:39:58;;;;;;;0.90;0.80;;;22.90;54.10;;;;;;219149;1288;22576;-53
2023/12/26 17:45:04;;;;;;;1.30;0.90;;;23.30;53.00;;;;;;219221;1283;22791;-55
2023/12/26 17:50:09;;;;;;;1.10;0.60;;;23.60;52.10;;;;;;219237;1285;24237;-55
2023/12/26 17:55:14;;;;;;;0.80;0.70;;;23.80;51.60;;;;;;218967;1287;24350;-55
2023/12/26 18:00:20;;;;;;;0.60;0.60;;;23.90;51.50;;;;;;219167;1273;22555;-53
2023/12/26 18:05:24;;;;;;;1.10;0.80;;;23.90;51.90;;;;;;219430;1280;22675;-55
2023/12/26 18:10:29;;;;;;;1.70;1.00;;;23.70;51.90;;;;;;219116;1280;26383;-53
2023/12/26 18:15:33;;;;;;;1.50;0.70;;;23.60;51.90;;;;;;219252;1273;22554;-53
2023/12/26 18:20:38;;;;;;;1.00;0.70;;;23.50;52.30;;;;;;219474;1288;23948;-52
2023/12/26 18:25:43;;;;;;;0.70;0.70;;;23.40;52.40;;;;;;219023;1273;152748;-54
2023/12/26 18:30:47;;;;;;;4.60;1.10;;;23.30;52.20;;;;;;219346;1267;22491;-54
2023/12/26 18:35:52;;;;;;;4.40;0.90;;;23.20;52.60;;;;;;219108;1285;25375;-54
2023/12/26 18:40:58;;;;;;;2.70;1.10;;;23.10;52.60;;;;;;219088;1280;25447;-54
2023/12/26 18:46:02;;;;;;;1.80;1.00;;;23.10;52.90;;;;;;219169;1285;22656;-54
2023/12/26 18:51:07;;;;;;;3.70;0.90;;;23.00;53.60;;;;;;219039;1288;22567;-58
2023/12/26 18:56:16;;;;;;;8.70;1.00;;;23.00;54.10;;;;;;219187;1283;22632;-55
2023/12/26 19:01:21;;;;;;;1.60;0.90;;;22.90;54.10;;;;;;219054;1280;25359;-58
2023/12/26 19:06:26;;;;;;;1.10;1.00;;;22.80;54.20;;;;;;219133;1286;22642;-54
2023/12/26 19:11:33;;;;;;;1.30;1.10;;;22.80;54.50;;;;;;219173;1283;22661;-55
2023/12/26 19:16:38;;;;;;;2.10;0.80;;;22.80;54.90;;;;;;219098;1283;22714;-54
2023/12/26 19:21:43;;;;;;;1.40;0.80;;;22.70;54.70;;;;;;219279;1285;24256;-53
2023/12/26 19:26:55;;;;;;;1.00;0.90;;;22.70;54.70;;;;;;219235;1280;22687;-55
2023/12/26 19:32:00;;;;;;;1.30;0.90;;;23.00;54.00;;;;;;219283;1283;22546;-52
2023/12/26 19:37:04;;;;;;;1.70;0.90;;;23.40;53.20;;;;;;219909;1280;24250;-54
2023/12/26 19:42:09;;;;;;;1.10;0.80;;;23.70;52.40;;;;;;219194;1286;25489;-52
2023/12/26 19:47:27;;;;;;;4.40;1.10;;;23.90;52.00;;;;;;219211;1279;24251;-54
2023/12/26 19:52:47;;;;;;;1.80;0.90;;;23.90;52.00;;;;;;219215;1283;22557;-55
2023/12/26 19:57:51;;;;;;;2.60;0.90;;;23.80;52.30;;;;;;219291;1283;22543;-54
2023/12/26 20:02:56;;;;;;;2.90;1.10;;;23.70;52.30;;;;;;219221;1283;22553;-55
2023/12/26 20:08:05;;;;;;;3.00;1.50;;;23.50;52.90;;;;;;218974;1286;25147;-50
2023/12/26 20:13:10;;;;;;;5.80;1.40;;;23.40;52.90;;;;;;219076;1277;26784;-54
2023/12/26 20:18:14;;;;;;;9.40;2.00;;;23.30;53.00;;;;;;218941;1282;24429;-52
2023/12/26 20:23:20;;;;;;;3.70;1.70;;;23.20;53.30;;;;;;219045;1289;24274;-55
2023/12/26 20:28:25;;;;;;;6.90;1.70;;;23.10;53.40;;;;;;219016;1282;24391;-52
2023/12/26 20:33:29;;;;;;;2.90;2.00;;;23.10;53.60;;;;;;219062;1282;22603;-54
2023/12/26 20:38:35;;;;;;;3.40;1.50;;;23.10;54.20;;;;;;219312;1288;24246;-53
2023/12/26 20:43:39;;;;;;;2.60;1.40;;;23.10;54.20;;;;;;219219;1276;22678;-52
2023/12/26 20:48:44;;;;;;;5.50;2.10;;;23.10;54.40;;;;;;218947;1282;23280;-54
2023/12/26 20:53:50;;;;;;;3.50;1.30;;;23.20;54.00;;;;;;219064;1281;22556;-52
2023/12/26 20:58:54;;;;;;;7.50;1.60;;;23.20;54.80;;;;;;219023;1282;22635;-50
2023/12/26 21:04:00;;;;;;;5.60;1.80;;;23.10;54.50;;;;;;219105;1282;24279;-53
2023/12/26 21:09:04;;;;;;;4.10;1.50;;;23.00;54.50;;;;;;218831;1276;23048;-49
2023/12/26 21:14:14;;;;;;;4.70;1.80;;;22.90;55.00;;;;;;219546;1280;25322;-52
2023/12/26 21:19:18;;;;;;;4.20;1.40;;;22.90;54.50;;;;;;219257;1281;22987;-53
2023/12/26 21:24:23;;;;;;;6.20;1.30;;;22.90;54.70;;;;;;219007;1280;22555;-51
2023/12/26 21:29:28;;;;;;;12.30;1.90;;;23.40;53.50;;;;;;218945;1283;24234;-53
2023/12/26 21:34:34;;;;;;;4.50;1.60;;;23.70;52.70;;;;;;219325;1278;22627;-51
2023/12/26 21:39:40;;;;;;;7.50;1.80;;;23.90;52.20;;;;;;219083;1280;22570;-47
2023/12/26 21:44:44;;;;;;;4.30;1.40;;;24.10;51.80;;;;;;218907;1264;24221;-50
2023/12/26 21:49:53;;;;;;;3.60;1.30;;;24.30;51.30;;;;;;219735;1272;22591;-49
2023/12/26 21:55:00;;;;;;;2.30;1.10;;;24.30;51.20;;;;;;219051;1273;24294;-50
2023/12/26 22:00:08;;;;;;;2.50;1.40;;;24.10;51.50;;;;;;218904;1267;24062;-49
2023/12/26 22:05:15;;;;;;;3.10;1.40;;;23.90;51.60;;;;;;219107;1282;22653;-50
2023/12/26 22:10:19;;;;;;;3.90;1.40;;;23.70;52.60;;;;;;219187;1288;22545;-49
2023/12/26 22:15:24;;;;;;;13.70;1.80;;;23.60;52.90;;;;;;219196;1288;24287;-48
2023/12/26 22:20:29;;;;;;;5.00;1.50;;;23.40;56.70;;;;;;219178;1283;25318;-50
2023/12/26 22:25:33;;;;;;;4.70;1.40;;;23.30;57.50;;;;;;219048;1284;24254;-48
2023/12/26 22:30:38;;;;;;;10.40;2.30;;;23.30;56.50;;;;;;219199;1283;22543;-52
2023/12/26 22:35:43;;;;;;;6.00;1.60;;;23.30;60.10;;;;;;219073;1280;26322;-48
2023/12/26 22:40:47;;;;;;;10.70;2.30;;;23.40;58.10;;;;;;219364;1273;23921;-61
2023/12/26 22:45:52;;;;;;;11.10;1.40;;;23.30;58.10;;;;;;220471;1279;23059;-57
2023/12/26 22:50:57;;;;;;;2.00;1.60;;;23.30;57.80;;;;;;220076;1283;24332;-58
2023/12/26 22:56:02;;;;;;;7.00;1.50;;;23.40;57.30;;;;;;219797;1280;24291;-57
2023/12/26 23:01:07;;;;;;;5.30;1.30;;;23.50;56.90;;;;;;219972;1286;22556;-56
2023/12/26 23:06:12;;;;;;;3.50;1.40;;;23.50;56.60;;;;;;219828;1283;22536;-60
2023/12/26 23:11:20;;;;;;;4.70;1.10;;;23.40;56.80;;;;;;220054;1286;24218;-57
2023/12/26 23:16:26;;;;;;;4.00;1.20;;;23.40;56.80;;;;;;220006;1285;22542;-58
2023/12/26 23:21:31;;;;;;;2.60;1.10;;;23.70;56.40;;;;;;219937;1279;25439;-57
2023/12/26 23:26:36;;;;;;;2.00;1.10;;;24.10;55.30;;;;;;220476;1276;22968;-58
2023/12/26 23:31:41;;;;;;;5.20;1.00;;;24.30;54.70;;;;;;223787;1278;22536;-55
2023/12/26 23:36:46;;;;;;;2.20;1.10;;;24.40;54.40;;;;;;223958;1280;22586;-56
2023/12/26 23:41:59;;;;;;;3.40;0.90;;;24.50;54.30;;;;;;223539;1280;22809;-58
2023/12/26 23:47:03;;;;;;;4.60;0.80;;;24.30;54.40;;;;;;223275;1287;22561;-57
2023/12/26 23:52:09;;;;;;;1.20;0.90;;;24.20;54.80;;;;;;223613;1280;22557;-55
2023/12/26 23:57:13;;;;;;;1.80;1.00;;;24.10;55.00;;;;;;223663;1288;22692;-58
